sensor_id;sensor_type;location;lat;lon;timestamp;pressure;altitude;pressure_sealevel;temperature;humidity
9717;BME280;4897;43.570;27.832;2023-08-17T00:01:50;98996.75;;;23.46;100.00
9717;BME280;4897;43.570;27.832;2023-08-17T00:04:17;98983.34;;;23.25;100.00
9717;BME280;4897;43.570;27.832;2023-08-17T00:06:44;99018.81;;;23.44;100.00
9717;BME280;4897;43.570;27.832;2023-08-17T00:09:12;98937.09;;;22.92;100.00
9717;BME280;4897;43.570;27.832;2023-08-17T00:11:39;99004.13;;;23.32;100.00
9717;BME280;4897;43.570;27.832;2023-08-17T00:14:09;99008.31;;;23.35;100.00
9717;BME280;4897;43.570;27.832;2023-08-17T00:16:38;99015.03;;;23.39;100.00
9717;BME280;4897;43.570;27.832;2023-08-17T00:19:05;99011.25;;;23.40;100.00
9717;BME280;4897;43.570;27.832;2023-08-17T00:21:32;98981.03;;;23.28;100.00
9717;BME280;4897;43.570;27.832;2023-08-17T00:23:59;99028.22;;;23.55;100.00
9717;BME280;4897;43.570;27.832;2023-08-17T00:26:25;98860.41;;;22.43;100.00
9717;BME280;4897;43.570;27.832;2023-08-17T00:28:53;99008.31;;;23.35;100.00
9717;BME280;4897;43.570;27.832;2023-08-17T00:31:20;99019.63;;;23.45;100.00
9717;BME280;4897;43.570;27.832;2023-08-17T00:33:48;99012.97;;;23.34;100.00
9717;BME280;4897;43.570;27.832;2023-08-17T00:36:16;99017.34;;;23.22;100.00
9717;BME280;4897;43.570;27.832;2023-08-17T00:38:42;98961.41;;;22.93;100.00
9717;BME280;4897;43.570;27.832;2023-08-17T00:41:09;99017.97;;;23.31;100.00
9717;BME280;4897;43.570;27.832;2023-08-17T00:43:36;99027.22;;;23.30;100.00
9717;BME280;4897;43.570;27.832;2023-08-17T00:46:03;99017.97;;;23.24;100.00
9717;BME280;4897;43.570;27.832;2023-08-17T00:48:31;99005.84;;;23.14;100.00
9717;BME280;4897;43.570;27.832;2023-08-17T00:51:01;99029.31;;;23.28;100.00
9717;BME280;4897;43.570;27.832;2023-08-17T00:53:29;99033.50;;;23.30;100.00
9717;BME280;4897;43.570;27.832;2023-08-17T00:55:58;99014.63;;;23.22;100.00
9717;BME280;4897;43.570;27.832;2023-08-17T00:58:27;99015.72;;;23.15;100.00
9717;BME280;4897;43.570;27.832;2023-08-17T01:00:54;99021.78;;;23.23;100.00
9717;BME280;4897;43.570;27.832;2023-08-17T01:03:22;99019.47;;;23.20;100.00
9717;BME280;4897;43.570;27.832;2023-08-17T01:05:49;99019.28;;;23.15;100.00
9717;BME280;4897;43.570;27.832;2023-08-17T01:08:18;99023.03;;;23.21;100.00
9717;BME280;4897;43.570;27.832;2023-08-17T01:10:52;99019.28;;;23.15;100.00
9717;BME280;4897;43.570;27.832;2023-08-17T01:13:24;99004.59;;;23.10;100.00
9717;BME280;4897;43.570;27.832;2023-08-17T01:15:56;99010.91;;;23.03;100.00
9717;BME280;4897;43.570;27.832;2023-08-17T01:18:30;99001.84;;;23.10;100.00
9717;BME280;4897;43.570;27.832;2023-08-17T01:20:58;99013.84;;;23.09;100.00
9717;BME280;4897;43.570;27.832;2023-08-17T01:23:28;99013.00;;;23.08;100.00
9717;BME280;4897;43.570;27.832;2023-08-17T01:25:55;98951.81;;;22.71;100.00
9717;BME280;4897;43.570;27.832;2023-08-17T01:28:23;99013.84;;;23.09;100.00
9717;BME280;4897;43.570;27.832;2023-08-17T01:30:55;98961.88;;;22.77;100.00
9717;BME280;4897;43.570;27.832;2023-08-17T01:33:29;98992.03;;;22.95;100.00
9717;BME280;4897;43.570;27.832;2023-08-17T01:36:06;99004.19;;;22.93;100.00
9717;BME280;4897;43.570;27.832;2023-08-17T01:38:38;98983.25;;;22.74;100.00
9717;BME280;4897;43.570;27.832;2023-08-17T01:41:09;99006.31;;;22.84;100.00
9717;BME280;4897;43.570;27.832;2023-08-17T01:43:41;98999.59;;;22.80;100.00
9717;BME280;4897;43.570;27.832;2023-08-17T01:46:13;98901.09;;;22.18;100.00
9717;BME280;4897;43.570;27.832;2023-08-17T01:48:40;99010.94;;;22.84;100.00
9717;BME280;4897;43.570;27.832;2023-08-17T01:51:10;99000.91;;;22.78;100.00
9717;BME280;4897;43.570;27.832;2023-08-17T01:53:38;98977.22;;;22.65;100.00
9717;BME280;4897;43.570;27.832;2023-08-17T01:56:05;98997.94;;;22.66;100.00
9717;BME280;4897;43.570;27.832;2023-08-17T01:58:32;98999.81;;;22.72;100.00
9717;BME280;4897;43.570;27.832;2023-08-17T02:00:59;98981.59;;;22.66;100.00
9717;BME280;4897;43.570;27.832;2023-08-17T02:03:26;98997.31;;;22.77;100.00
9717;BME280;4897;43.570;27.832;2023-08-17T02:05:55;99003.81;;;22.83;100.00
9717;BME280;4897;43.570;27.832;2023-08-17T02:08:22;98991.88;;;22.77;100.00
9717;BME280;4897;43.570;27.832;2023-08-17T02:10:51;99002.53;;;22.85;100.00
9717;BME280;4897;43.570;27.832;2023-08-17T02:13:18;98985.97;;;22.80;100.00
9717;BME280;4897;43.570;27.832;2023-08-17T02:15:46;98971.94;;;22.64;100.00
9717;BME280;4897;43.570;27.832;2023-08-17T02:18:13;98981.38;;;22.74;100.00
9717;BME280;4897;43.570;27.832;2023-08-17T02:20:40;98995.00;;;22.81;100.00
9717;BME280;4897;43.570;27.832;2023-08-17T02:23:07;98997.50;;;22.82;100.00
9717;BME280;4897;43.570;27.832;2023-08-17T02:25:37;99005.06;;;22.80;100.00
9717;BME280;4897;43.570;27.832;2023-08-17T02:28:06;98995.00;;;22.74;100.00
9717;BME280;4897;43.570;27.832;2023-08-17T02:30:33;98996.47;;;22.77;100.00
9717;BME280;4897;43.570;27.832;2023-08-17T02:33:00;98980.13;;;22.64;100.00
9717;BME280;4897;43.570;27.832;2023-08-17T02:35:27;98998.34;;;22.76;100.00
9717;BME280;4897;43.570;27.832;2023-08-17T02:37:54;98987.03;;;22.73;100.00
9717;BME280;4897;43.570;27.832;2023-08-17T02:40:21;98974.47;;;22.65;100.00
9717;BME280;4897;43.570;27.832;2023-08-17T02:42:48;98999.22;;;22.70;100.00
9717;BME280;4897;43.570;27.832;2023-08-17T02:45:19;98997.94;;;22.86;100.00
9717;BME280;4897;43.570;27.832;2023-08-17T02:47:46;99004.88;;;22.75;100.00
9717;BME280;4897;43.570;27.832;2023-08-17T02:50:13;98999.19;;;22.83;100.00
9717;BME280;4897;43.570;27.832;2023-08-17T02:52:40;98998.56;;;22.81;100.00
9717;BME280;4897;43.570;27.832;2023-08-17T02:55:07;98980.34;;;22.69;100.00
9717;BME280;4897;43.570;27.832;2023-08-17T02:57:34;98934.22;;;22.41;100.00
9717;BME280;4897;43.570;27.832;2023-08-17T03:00:01;98991.66;;;22.72;100.00
9717;BME280;4897;43.570;27.832;2023-08-17T03:02:30;98989.38;;;22.69;100.00
9717;BME280;4897;43.570;27.832;2023-08-17T03:04:57;98992.09;;;22.69;100.00
9717;BME280;4897;43.570;27.832;2023-08-17T03:07:24;98992.28;;;22.61;100.00
9717;BME280;4897;43.570;27.832;2023-08-17T03:09:54;98998.78;;;22.67;100.00
9717;BME280;4897;43.570;27.832;2023-08-17T03:12:21;98989.34;;;22.56;100.00
9717;BME280;4897;43.570;27.832;2023-08-17T03:14:47;99000.91;;;22.58;100.00
9717;BME280;4897;43.570;27.832;2023-08-17T03:17:14;99001.75;;;22.59;100.00
9717;BME280;4897;43.570;27.832;2023-08-17T03:19:43;98989.13;;;22.51;100.00
9717;BME280;4897;43.570;27.832;2023-08-17T03:22:10;98987.22;;;22.52;100.00
9717;BME280;4897;43.570;27.832;2023-08-17T03:24:36;98989.75;;;22.47;100.00
9717;BME280;4897;43.570;27.832;2023-08-17T03:27:04;98925.81;;;21.97;100.00
9717;BME280;4897;43.570;27.832;2023-08-17T03:29:31;98990.38;;;22.29;100.00
9717;BME280;4897;43.570;27.832;2023-08-17T03:31:58;98991.22;;;22.23;100.00
9717;BME280;4897;43.570;27.832;2023-08-17T03:34:25;98984.94;;;22.29;100.00
9717;BME280;4897;43.570;27.832;2023-08-17T03:36:53;99002.94;;;22.37;100.00
9717;BME280;4897;43.570;27.832;2023-08-17T03:39:20;98996.22;;;22.26;100.00
9717;BME280;4897;43.570;27.832;2023-08-17T03:41:47;98960.22;;;22.11;100.00
9717;BME280;4897;43.570;27.832;2023-08-17T03:44:14;98976.53;;;22.31;100.00
9717;BME280;4897;43.570;27.832;2023-08-17T03:46:41;98986.41;;;22.38;100.00
9717;BME280;4897;43.570;27.832;2023-08-17T03:49:08;98996.25;;;22.52;100.00
9717;BME280;4897;43.570;27.832;2023-08-17T03:51:35;98979.50;;;22.49;100.00
9717;BME280;4897;43.570;27.832;2023-08-17T03:54:04;99000.91;;;22.58;100.00
9717;BME280;4897;43.570;27.832;2023-08-17T03:56:31;99014.94;;;22.81;100.00
9717;BME280;4897;43.570;27.832;2023-08-17T03:58:58;99023.75;;;22.83;100.00
9717;BME280;4897;43.570;27.832;2023-08-17T04:01:25;98994.19;;;22.67;100.00
9717;BME280;4897;43.570;27.832;2023-08-17T04:03:52;99008.00;;;22.92;100.00
9717;BME280;4897;43.570;27.832;2023-08-17T04:06:19;99027.69;;;23.07;100.00
9717;BME280;4897;43.570;27.832;2023-08-17T04:08:46;99031.25;;;23.08;100.00
9717;BME280;4897;43.570;27.832;2023-08-17T04:11:14;99020.13;;;23.09;100.00
9717;BME280;4897;43.570;27.832;2023-08-17T04:13:41;99017.38;;;23.16;100.00
9717;BME280;4897;43.570;27.832;2023-08-17T04:16:08;99021.78;;;23.23;100.00
9717;BME280;4897;43.570;27.832;2023-08-17T04:18:35;99025.31;;;23.37;100.00
9717;BME280;4897;43.570;27.832;2023-08-17T04:21:02;99030.53;;;23.45;100.00
9717;BME280;4897;43.570;27.832;2023-08-17T04:23:29;99011.00;;;23.54;100.00
9717;BME280;4897;43.570;27.832;2023-08-17T04:25:56;99006.16;;;23.56;100.00
9717;BME280;4897;43.570;27.832;2023-08-17T04:28:24;99015.03;;;23.83;100.00
9717;BME280;4897;43.570;27.832;2023-08-17T04:30:51;99018.75;;;23.95;100.00
9717;BME280;4897;43.570;27.832;2023-08-17T04:33:18;99017.06;;;24.07;100.00
9717;BME280;4897;43.570;27.832;2023-08-17T04:35:46;99022.41;;;24.20;100.00
9717;BME280;4897;43.570;27.832;2023-08-17T04:38:14;99029.69;;;24.33;100.00
9717;BME280;4897;43.570;27.832;2023-08-17T04:40:43;99017.22;;;24.43;100.00
9717;BME280;4897;43.570;27.832;2023-08-17T04:43:13;99011.78;;;24.61;100.00
9717;BME280;4897;43.570;27.832;2023-08-17T04:45:41;99035.84;;;24.84;100.00
9717;BME280;4897;43.570;27.832;2023-08-17T04:48:09;99034.34;;;24.88;100.00
9717;BME280;4897;43.570;27.832;2023-08-17T04:50:37;99031.25;;;25.03;100.00
9717;BME280;4897;43.570;27.832;2023-08-17T04:53:03;99026.53;;;25.10;100.00
9717;BME280;4897;43.570;27.832;2023-08-17T04:55:31;99007.22;;;25.23;100.00
9717;BME280;4897;43.570;27.832;2023-08-17T04:57:58;99038.88;;;25.37;100.00
9717;BME280;4897;43.570;27.832;2023-08-17T05:00:25;99023.69;;;25.41;100.00
9717;BME280;4897;43.570;27.832;2023-08-17T05:02:55;99032.84;;;25.53;100.00
9717;BME280;4897;43.570;27.832;2023-08-17T05:05:22;99010.59;;;25.61;100.00
9717;BME280;4897;43.570;27.832;2023-08-17T05:07:49;99021.38;;;25.74;100.00
9717;BME280;4897;43.570;27.832;2023-08-17T05:10:16;98995.91;;;25.74;100.00
9717;BME280;4897;43.570;27.832;2023-08-17T05:12:43;98961.84;;;25.70;100.00
9717;BME280;4897;43.570;27.832;2023-08-17T05:15:12;99018.88;;;26.21;100.00
9717;BME280;4897;43.570;27.832;2023-08-17T05:17:39;99011.16;;;26.29;100.00
9717;BME280;4897;43.570;27.832;2023-08-17T05:20:08;99032.69;;;26.55;100.00
9717;BME280;4897;43.570;27.832;2023-08-17T05:22:35;99020.88;;;26.55;100.00
9717;BME280;4897;43.570;27.832;2023-08-17T05:25:03;99008.84;;;26.67;100.00
9717;BME280;4897;43.570;27.832;2023-08-17T05:27:30;99015.31;;;26.73;100.00
9717;BME280;4897;43.570;27.832;2023-08-17T05:30:00;99016.91;;;26.80;100.00
9717;BME280;4897;43.570;27.832;2023-08-17T05:32:27;98969.47;;;26.39;100.00
9717;BME280;4897;43.570;27.832;2023-08-17T05:34:54;99018.91;;;26.73;100.00
9717;BME280;4897;43.570;27.832;2023-08-17T05:37:22;99008.66;;;26.80;100.00
9717;BME280;4897;43.570;27.832;2023-08-17T05:39:49;98996.97;;;26.97;100.00
9717;BME280;4897;43.570;27.832;2023-08-17T05:42:16;99001.72;;;27.13;100.00
9717;BME280;4897;43.570;27.832;2023-08-17T05:44:44;98975.94;;;27.02;100.00
9717;BME280;4897;43.570;27.832;2023-08-17T05:47:11;99009.25;;;27.40;100.00
9717;BME280;4897;43.570;27.832;2023-08-17T05:49:40;99000.75;;;27.53;100.00
9717;BME280;4897;43.570;27.832;2023-08-17T05:52:07;99005.00;;;27.61;100.00
9717;BME280;4897;43.570;27.832;2023-08-17T05:54:35;99000.50;;;27.32;100.00
9717;BME280;4897;43.570;27.832;2023-08-17T05:57:03;99016.13;;;27.54;100.00
9717;BME280;4897;43.570;27.832;2023-08-17T05:59:33;98982.75;;;27.74;100.00
9717;BME280;4897;43.570;27.832;2023-08-17T06:02:02;99004.22;;;28.17;100.00
9717;BME280;4897;43.570;27.832;2023-08-17T06:04:29;98996.56;;;28.19;100.00
9717;BME280;4897;43.570;27.832;2023-08-17T06:06:56;98976.25;;;28.20;100.00
9717;BME280;4897;43.570;27.832;2023-08-17T06:09:23;98992.78;;;28.53;100.00
9717;BME280;4897;43.570;27.832;2023-08-17T06:11:52;98996.44;;;28.42;100.00
9717;BME280;4897;43.570;27.832;2023-08-17T06:14:18;98840.00;;;27.51;100.00
9717;BME280;4897;43.570;27.832;2023-08-17T06:16:45;99005.41;;;28.37;100.00
9717;BME280;4897;43.570;27.832;2023-08-17T06:19:12;99009.94;;;28.43;100.00
9717;BME280;4897;43.570;27.832;2023-08-17T06:21:39;98983.50;;;28.26;100.00
9717;BME280;4897;43.570;27.832;2023-08-17T06:24:06;98947.56;;;28.16;100.00
9717;BME280;4897;43.570;27.832;2023-08-17T06:26:33;98978.84;;;28.26;100.00
9717;BME280;4897;43.570;27.832;2023-08-17T06:29:02;98995.78;;;28.35;100.00
9717;BME280;4897;43.570;27.832;2023-08-17T06:31:28;98977.25;;;28.30;100.00
9717;BME280;4897;43.570;27.832;2023-08-17T06:33:56;99006.47;;;28.65;100.00
9717;BME280;4897;43.570;27.832;2023-08-17T06:36:23;98997.16;;;28.82;100.00
9717;BME280;4897;43.570;27.832;2023-08-17T06:38:50;99000.94;;;28.98;100.00
9717;BME280;4897;43.570;27.832;2023-08-17T06:41:17;98978.94;;;28.81;100.00
9717;BME280;4897;43.570;27.832;2023-08-17T06:43:44;98990.88;;;29.03;100.00
9717;BME280;4897;43.570;27.832;2023-08-17T06:46:13;99004.63;;;29.20;100.00
9717;BME280;4897;43.570;27.832;2023-08-17T06:48:40;98983.34;;;29.15;100.00
9717;BME280;4897;43.570;27.832;2023-08-17T06:51:07;98997.59;;;29.51;100.00
9717;BME280;4897;43.570;27.832;2023-08-17T06:53:34;99006.00;;;29.61;100.00
9717;BME280;4897;43.570;27.832;2023-08-17T06:56:01;99001.63;;;29.65;100.00
9717;BME280;4897;43.570;27.832;2023-08-17T06:58:28;98987.28;;;29.63;100.00
9717;BME280;4897;43.570;27.832;2023-08-17T07:00:55;99001.63;;;29.65;100.00
9717;BME280;4897;43.570;27.832;2023-08-17T07:03:24;98995.31;;;29.64;100.00
9717;BME280;4897;43.570;27.832;2023-08-17T07:05:51;98994.47;;;29.64;100.00
9717;BME280;4897;43.570;27.832;2023-08-17T07:08:17;99004.22;;;29.71;100.00
9717;BME280;4897;43.570;27.832;2023-08-17T07:10:44;99002.16;;;29.62;100.00
9717;BME280;4897;43.570;27.832;2023-08-17T07:13:11;98996.13;;;29.65;100.00
9717;BME280;4897;43.570;27.832;2023-08-17T07:15:38;98990.91;;;29.85;100.00
9717;BME280;4897;43.570;27.832;2023-08-17T07:18:06;98990.19;;;29.94;100.00
9717;BME280;4897;43.570;27.832;2023-08-17T07:20:34;98985.03;;;30.03;100.00
9717;BME280;4897;43.570;27.832;2023-08-17T07:23:04;98981.91;;;30.21;100.00
9717;BME280;4897;43.570;27.832;2023-08-17T07:25:34;98994.25;;;30.40;100.00
9717;BME280;4897;43.570;27.832;2023-08-17T07:28:00;98972.19;;;30.40;100.00
9717;BME280;4897;43.570;27.832;2023-08-17T07:30:29;98987.28;;;30.59;100.00
9717;BME280;4897;43.570;27.832;2023-08-17T07:32:55;98996.63;;;30.58;100.00
9717;BME280;4897;43.570;27.832;2023-08-17T07:35:22;98992.78;;;30.59;100.00
9717;BME280;4897;43.570;27.832;2023-08-17T07:37:51;98987.78;;;30.56;100.00
9717;BME280;4897;43.570;27.832;2023-08-17T07:40:20;98998.44;;;30.74;100.00
9717;BME280;4897;43.570;27.832;2023-08-17T07:42:48;98994.06;;;30.84;100.00
9717;BME280;4897;43.570;27.832;2023-08-17T07:45:15;98996.34;;;30.87;100.00
9717;BME280;4897;43.570;27.832;2023-08-17T07:47:42;98998.00;;;30.88;100.00
9717;BME280;4897;43.570;27.832;2023-08-17T07:50:09;99008.03;;;30.99;100.00
9717;BME280;4897;43.570;27.832;2023-08-17T07:52:36;99003.06;;;30.96;100.00
9717;BME280;4897;43.570;27.832;2023-08-17T07:55:05;99006.22;;;31.14;100.00
9717;BME280;4897;43.570;27.832;2023-08-17T07:57:32;99008.94;;;31.51;100.00
9717;BME280;4897;43.570;27.832;2023-08-17T07:59:59;98991.97;;;31.89;100.00
9717;BME280;4897;43.570;27.832;2023-08-17T08:02:26;98999.06;;;32.47;100.00
9717;BME280;4897;43.570;27.832;2023-08-17T08:04:53;98988.84;;;32.98;100.00
9717;BME280;4897;43.570;27.832;2023-08-17T08:07:20;99001.53;;;34.08;95.17
9717;BME280;4897;43.570;27.832;2023-08-17T08:09:47;99003.22;;;35.44;78.33
9717;BME280;4897;43.570;27.832;2023-08-17T08:12:15;99019.25;;;36.23;66.60
9717;BME280;4897;43.570;27.832;2023-08-17T08:14:42;98989.28;;;35.73;67.46
9717;BME280;4897;43.570;27.832;2023-08-17T08:17:09;99016.78;;;36.22;67.12
9717;BME280;4897;43.570;27.832;2023-08-17T08:19:36;99004.63;;;36.68;61.92
9717;BME280;4897;43.570;27.832;2023-08-17T08:22:03;99021.94;;;37.16;58.84
9717;BME280;4897;43.570;27.832;2023-08-17T08:24:30;99005.22;;;37.03;59.22
9717;BME280;4897;43.570;27.832;2023-08-17T08:27:00;99014.22;;;37.86;55.56
9717;BME280;4897;43.570;27.832;2023-08-17T08:29:28;99014.81;;;37.56;53.60
9717;BME280;4897;43.570;27.832;2023-08-17T08:31:55;99017.88;;;36.39;57.01
9717;BME280;4897;43.570;27.832;2023-08-17T08:34:24;99030.53;;;36.13;60.20
9717;BME280;4897;43.570;27.832;2023-08-17T08:36:51;99021.44;;;37.60;54.02
9717;BME280;4897;43.570;27.832;2023-08-17T08:39:18;98983.13;;;38.28;48.35
9717;BME280;4897;43.570;27.832;2023-08-17T08:41:47;99021.44;;;38.28;48.57
9717;BME280;4897;43.570;27.832;2023-08-17T08:44:14;99022.59;;;37.27;53.87
9717;BME280;4897;43.570;27.832;2023-08-17T08:46:44;99022.25;;;38.01;52.26
9717;BME280;4897;43.570;27.832;2023-08-17T08:49:19;99042.44;;;37.85;50.63
9717;BME280;4897;43.570;27.832;2023-08-17T08:51:48;99023.78;;;38.34;50.05
9717;BME280;4897;43.570;27.832;2023-08-17T08:54:20;98995.81;;;39.45;45.77
9717;BME280;4897;43.570;27.832;2023-08-17T08:56:51;99002.16;;;39.29;44.85
9717;BME280;4897;43.570;27.832;2023-08-17T08:59:20;99029.06;;;38.22;46.38
9717;BME280;4897;43.570;27.832;2023-08-17T09:01:49;99019.03;;;39.76;43.85
9717;BME280;4897;43.570;27.832;2023-08-17T09:04:17;99001.78;;;40.91;40.86
9717;BME280;4897;43.570;27.832;2023-08-17T09:06:44;98998.31;;;41.49;38.00
9717;BME280;4897;43.570;27.832;2023-08-17T09:09:14;99006.63;;;41.36;38.73
9717;BME280;4897;43.570;27.832;2023-08-17T09:11:42;99006.41;;;41.50;38.46
9717;BME280;4897;43.570;27.832;2023-08-17T09:14:09;99026.44;;;41.86;37.22
9717;BME280;4897;43.570;27.832;2023-08-17T09:16:36;99011.94;;;41.29;37.72
9717;BME280;4897;43.570;27.832;2023-08-17T09:19:05;99012.81;;;41.68;37.94
9717;BME280;4897;43.570;27.832;2023-08-17T09:21:33;99010.81;;;40.71;38.47
9717;BME280;4897;43.570;27.832;2023-08-17T09:24:00;99008.28;;;40.01;39.60
9717;BME280;4897;43.570;27.832;2023-08-17T09:26:30;98998.91;;;41.08;37.80
9717;BME280;4897;43.570;27.832;2023-08-17T09:28:58;98999.50;;;42.35;36.00
9717;BME280;4897;43.570;27.832;2023-08-17T09:31:30;99016.94;;;41.70;35.71
9717;BME280;4897;43.570;27.832;2023-08-17T09:33:58;99009.31;;;42.00;35.18
9717;BME280;4897;43.570;27.832;2023-08-17T09:36:26;99026.31;;;41.28;36.10
9717;BME280;4897;43.570;27.832;2023-08-17T09:38:53;99009.25;;;40.05;38.58
9717;BME280;4897;43.570;27.832;2023-08-17T09:41:22;98997.13;;;40.78;37.59
9717;BME280;4897;43.570;27.832;2023-08-17T09:43:49;99016.19;;;42.40;35.18
9717;BME280;4897;43.570;27.832;2023-08-17T09:46:16;99021.44;;;42.21;35.20
9717;BME280;4897;43.570;27.832;2023-08-17T09:48:43;99018.13;;;42.69;34.40
9717;BME280;4897;43.570;27.832;2023-08-17T09:51:14;99003.66;;;43.56;33.00
9717;BME280;4897;43.570;27.832;2023-08-17T09:53:43;99017.81;;;43.24;32.97
9717;BME280;4897;43.570;27.832;2023-08-17T09:56:10;98974.47;;;43.73;32.01
9717;BME280;4897;43.570;27.832;2023-08-17T09:58:39;98990.56;;;43.16;31.26
9717;BME280;4897;43.570;27.832;2023-08-17T10:01:08;98987.00;;;43.07;32.09
9717;BME280;4897;43.570;27.832;2023-08-17T10:03:38;99001.41;;;43.26;31.58
9717;BME280;4897;43.570;27.832;2023-08-17T10:06:06;99002.81;;;43.44;32.08
9717;BME280;4897;43.570;27.832;2023-08-17T10:08:39;99007.75;;;42.40;32.28
9717;BME280;4897;43.570;27.832;2023-08-17T10:11:10;98996.41;;;42.57;31.88
9717;BME280;4897;43.570;27.832;2023-08-17T10:13:42;99002.00;;;42.16;30.83
9717;BME280;4897;43.570;27.832;2023-08-17T10:16:22;98996.59;;;42.02;32.52
9717;BME280;4897;43.570;27.832;2023-08-17T10:18:54;99002.31;;;42.35;32.66
9717;BME280;4897;43.570;27.832;2023-08-17T10:21:25;98917.38;;;42.50;31.58
9717;BME280;4897;43.570;27.832;2023-08-17T10:23:55;98996.13;;;43.36;30.75
9717;BME280;4897;43.570;27.832;2023-08-17T10:26:24;98994.13;;;43.25;31.03
9717;BME280;4897;43.570;27.832;2023-08-17T10:28:51;98960.00;;;43.62;30.73
9717;BME280;4897;43.570;27.832;2023-08-17T10:31:20;98984.34;;;43.22;31.00
9717;BME280;4897;43.570;27.832;2023-08-17T10:33:47;98989.50;;;43.20;30.97
9717;BME280;4897;43.570;27.832;2023-08-17T10:36:15;98990.53;;;43.04;30.91
9717;BME280;4897;43.570;27.832;2023-08-17T10:38:42;99000.66;;;42.63;31.50
9717;BME280;4897;43.570;27.832;2023-08-17T10:41:11;98989.16;;;41.98;32.44
9717;BME280;4897;43.570;27.832;2023-08-17T10:43:56;98985.50;;;42.06;31.59
9717;BME280;4897;43.570;27.832;2023-08-17T10:46:32;98975.34;;;41.93;31.52
9717;BME280;4897;43.570;27.832;2023-08-17T10:49:02;98985.69;;;41.08;32.05
9717;BME280;4897;43.570;27.832;2023-08-17T10:51:31;98981.47;;;41.49;31.79
9717;BME280;4897;43.570;27.832;2023-08-17T10:53:59;98979.00;;;40.92;32.96
9717;BME280;4897;43.570;27.832;2023-08-17T10:56:28;98993.00;;;40.32;34.35
9717;BME280;4897;43.570;27.832;2023-08-17T10:58:59;98993.06;;;41.47;33.12
9717;BME280;4897;43.570;27.832;2023-08-17T11:01:36;98983.69;;;41.81;32.54
9717;BME280;4897;43.570;27.832;2023-08-17T11:04:11;98986.50;;;42.10;31.67
9717;BME280;4897;43.570;27.832;2023-08-17T11:06:38;98992.59;;;42.95;30.74
9717;BME280;4897;43.570;27.832;2023-08-17T11:09:09;98963.59;;;41.91;31.90
9717;BME280;4897;43.570;27.832;2023-08-17T11:11:39;98979.44;;;42.86;31.06
9717;BME280;4897;43.570;27.832;2023-08-17T11:14:08;98975.50;;;43.56;29.99
9717;BME280;4897;43.570;27.832;2023-08-17T11:16:36;98975.88;;;43.67;29.98
9717;BME280;4897;43.570;27.832;2023-08-17T11:19:04;98974.09;;;43.62;28.71
9717;BME280;4897;43.570;27.832;2023-08-17T11:21:31;98974.34;;;44.18;28.50
9717;BME280;4897;43.570;27.832;2023-08-17T11:23:58;98924.69;;;43.77;28.30
9717;BME280;4897;43.570;27.832;2023-08-17T11:26:26;98973.06;;;43.67;29.02
9717;BME280;4897;43.570;27.832;2023-08-17T11:28:56;98931.78;;;44.35;29.08
9717;BME280;4897;43.570;27.832;2023-08-17T11:31:25;98954.59;;;44.18;29.07
9717;BME280;4897;43.570;27.832;2023-08-17T11:33:52;98969.88;;;44.29;28.91
9717;BME280;4897;43.570;27.832;2023-08-17T11:36:19;98972.78;;;42.91;29.90
9717;BME280;4897;43.570;27.832;2023-08-17T11:38:50;98971.09;;;40.43;31.98
9717;BME280;4897;43.570;27.832;2023-08-17T11:41:19;98957.13;;;39.86;32.78
9717;BME280;4897;43.570;27.832;2023-08-17T11:43:46;98933.16;;;40.37;32.59
9717;BME280;4897;43.570;27.832;2023-08-17T11:46:13;98929.16;;;40.89;31.79
9717;BME280;4897;43.570;27.832;2023-08-17T11:48:44;98943.38;;;41.39;31.09
9717;BME280;4897;43.570;27.832;2023-08-17T11:51:12;98961.28;;;41.93;31.40
9717;BME280;4897;43.570;27.832;2023-08-17T11:53:38;98921.94;;;42.75;29.82
9717;BME280;4897;43.570;27.832;2023-08-17T11:56:06;98938.41;;;43.42;28.67
9717;BME280;4897;43.570;27.832;2023-08-17T11:58:40;98930.53;;;43.48;28.34
9717;BME280;4897;43.570;27.832;2023-08-17T12:01:09;98936.91;;;43.45;28.87
9717;BME280;4897;43.570;27.832;2023-08-17T12:03:38;98946.50;;;43.44;28.91
9717;BME280;4897;43.570;27.832;2023-08-17T12:06:07;98950.66;;;43.71;28.02
9717;BME280;4897;43.570;27.832;2023-08-17T12:08:34;98962.16;;;43.21;29.17
9717;BME280;4897;43.570;27.832;2023-08-17T12:11:02;98951.75;;;43.33;28.97
9717;BME280;4897;43.570;27.832;2023-08-17T12:13:31;98909.38;;;43.06;28.88
9717;BME280;4897;43.570;27.832;2023-08-17T12:15:58;98953.50;;;42.81;28.76
9717;BME280;4897;43.570;27.832;2023-08-17T12:18:26;98919.53;;;43.31;28.44
9717;BME280;4897;43.570;27.832;2023-08-17T12:20:53;98962.47;;;44.00;27.37
9717;BME280;4897;43.570;27.832;2023-08-17T12:23:23;98951.94;;;44.09;27.50
9717;BME280;4897;43.570;27.832;2023-08-17T12:25:54;98930.44;;;43.93;27.59
9717;BME280;4897;43.570;27.832;2023-08-17T12:28:22;98959.00;;;44.03;27.12
9717;BME280;4897;43.570;27.832;2023-08-17T12:30:57;98966.78;;;43.25;27.62
9717;BME280;4897;43.570;27.832;2023-08-17T12:33:25;98967.84;;;42.26;29.13
9717;BME280;4897;43.570;27.832;2023-08-17T12:35:52;98947.72;;;42.45;29.13
9717;BME280;4897;43.570;27.832;2023-08-17T12:38:19;98946.22;;;42.47;28.93
9717;BME280;4897;43.570;27.832;2023-08-17T12:40:47;98955.56;;;43.05;28.71
9717;BME280;4897;43.570;27.832;2023-08-17T12:43:14;98940.06;;;43.43;27.96
9717;BME280;4897;43.570;27.832;2023-08-17T12:45:41;98960.97;;;44.03;27.44
9717;BME280;4897;43.570;27.832;2023-08-17T12:48:08;98950.44;;;44.39;27.23
9717;BME280;4897;43.570;27.832;2023-08-17T12:50:35;98950.84;;;45.09;26.83
9717;BME280;4897;43.570;27.832;2023-08-17T12:53:03;98935.50;;;45.22;26.35
9717;BME280;4897;43.570;27.832;2023-08-17T12:55:30;98929.63;;;44.99;26.33
9717;BME280;4897;43.570;27.832;2023-08-17T12:57:58;98932.66;;;43.39;27.52
9717;BME280;4897;43.570;27.832;2023-08-17T13:00:26;98946.56;;;42.78;28.74
9717;BME280;4897;43.570;27.832;2023-08-17T13:02:53;98910.31;;;43.22;27.80
9717;BME280;4897;43.570;27.832;2023-08-17T13:05:20;98890.44;;;43.63;27.64
9717;BME280;4897;43.570;27.832;2023-08-17T13:07:47;98943.28;;;43.09;28.71
9717;BME280;4897;43.570;27.832;2023-08-17T13:10:14;98930.34;;;43.89;27.75